createdAt,value
2018-07-03T00:00:40.590Z,21.67
2018-07-03T00:01:40.540Z,21.66
2018-07-03T00:02:40.765Z,21.75
2018-07-03T00:03:40.454Z,21.62
2018-07-03T00:04:40.446Z,21.66
2018-07-03T00:05:40.373Z,21.55
2018-07-03T00:06:40.348Z,21.70
2018-07-03T00:07:40.277Z,21.76
2018-07-03T00:08:40.487Z,21.62
2018-07-03T00:09:40.199Z,21.67
2018-07-03T00:10:40.165Z,21.57
2018-07-03T00:11:40.087Z,21.55
2018-07-03T00:12:40.053Z,21.50
2018-07-03T00:13:40.032Z,21.55
2018-07-03T00:14:40.209Z,21.48
2018-07-03T00:15:39.915Z,21.48
2018-07-03T00:16:39.876Z,21.46
2018-07-03T00:17:39.833Z,21.60
2018-07-03T00:18:39.782Z,21.54
2018-07-03T00:19:39.767Z,21.58
2018-07-03T00:20:39.969Z,21.54
2018-07-03T00:21:39.658Z,21.57
2018-07-03T00:22:39.610Z,21.52
2018-07-03T00:23:39.571Z,21.46
2018-07-03T00:24:39.530Z,21.48
2018-07-03T00:25:39.468Z,21.48
2018-07-03T00:26:39.663Z,21.54
2018-07-03T00:27:39.401Z,21.50
2018-07-03T00:28:39.353Z,21.52
2018-07-03T00:29:39.289Z,21.35
2018-07-03T00:30:39.247Z,21.37
2018-07-03T00:31:39.207Z,21.43
2018-07-03T00:32:39.410Z,21.45
2018-07-03T00:33:39.114Z,21.51
2018-07-03T00:34:39.068Z,21.39
2018-07-03T00:35:39.038Z,21.33
2018-07-03T00:36:38.981Z,21.36
2018-07-03T00:37:38.928Z,21.36
2018-07-03T00:38:39.147Z,21.37
2018-07-03T00:39:38.831Z,21.24
2018-07-03T00:40:38.801Z,21.18
2018-07-03T00:41:38.767Z,21.24
2018-07-03T00:42:38.698Z,21.17
2018-07-03T00:43:38.688Z,21.17
2018-07-03T00:44:38.852Z,21.06
2018-07-03T00:45:38.575Z,21.14
2018-07-03T00:46:38.526Z,21.21
2018-07-03T00:47:38.465Z,21.20
2018-07-03T00:48:38.431Z,21.25
2018-07-03T00:49:38.387Z,21.15
2018-07-03T00:50:38.592Z,21.06
2018-07-03T00:51:38.292Z,21.07
2018-07-03T00:52:38.238Z,21.17
2018-07-03T00:53:38.190Z,21.22
2018-07-03T00:54:38.168Z,21.24
2018-07-03T00:55:38.100Z,21.25
2018-07-03T00:56:38.326Z,21.24
2018-07-03T00:57:38.025Z,21.20
2018-07-03T00:58:37.967Z,21.21
2018-07-03T00:59:37.930Z,21.12
2018-07-03T01:00:37.876Z,21.22
2018-07-03T01:01:37.836Z,21.15
2018-07-03T01:02:38.062Z,21.11
2018-07-03T01:03:37.748Z,21.09
2018-07-03T01:04:37.725Z,21.07
2018-07-03T01:05:37.665Z,21.15
2018-07-03T01:06:37.604Z,21.14
2018-07-03T01:07:37.571Z,21.18
2018-07-03T01:08:37.770Z,21.20
2018-07-03T01:09:37.471Z,21.15
2018-07-03T01:10:37.449Z,21.09
2018-07-03T01:11:37.378Z,21.11
2018-07-03T01:12:37.370Z,21.12
2018-07-03T01:13:37.287Z,21.18
2018-07-03T01:14:37.543Z,21.11
2018-07-03T01:15:37.203Z,21.05
2018-07-03T01:16:37.167Z,20.99
2018-07-03T01:17:37.112Z,20.97
2018-07-03T01:18:37.076Z,20.93
2018-07-03T01:19:37.023Z,20.95
2018-07-03T01:20:37.252Z,20.92
2018-07-03T01:21:36.930Z,21.02
2018-07-03T01:22:36.910Z,20.99
2018-07-03T01:23:36.849Z,21.00
2018-07-03T01:24:36.832Z,20.84
2018-07-03T01:25:36.760Z,20.88
2018-07-03T01:26:36.987Z,20.81
2018-07-03T01:27:36.665Z,20.78
2018-07-03T01:28:36.632Z,20.69
2018-07-03T01:29:36.571Z,20.77
2018-07-03T01:30:36.528Z,20.70
2018-07-03T01:31:36.495Z,20.72
2018-07-03T01:32:36.708Z,20.77
2018-07-03T01:33:36.395Z,20.77
2018-07-03T01:34:36.356Z,20.75
2018-07-03T01:35:36.306Z,20.67
2018-07-03T01:36:36.260Z,20.74
2018-07-03T01:37:36.230Z,20.72
2018-07-03T01:38:36.435Z,20.80
2018-07-03T01:39:36.117Z,20.67
2018-07-03T01:40:36.064Z,20.78
2018-07-03T01:41:36.038Z,20.81
2018-07-03T01:42:35.973Z,20.72
2018-07-03T01:43:35.968Z,20.74
2018-07-03T01:44:36.152Z,20.72
2018-07-03T01:45:35.867Z,20.72
2018-07-03T01:46:35.791Z,20.72
2018-07-03T01:47:35.763Z,20.74
2018-07-03T01:48:35.713Z,20.69
2018-07-03T01:49:35.662Z,20.66
2018-07-03T01:50:35.868Z,20.69
2018-07-03T01:51:35.568Z,20.62
2018-07-03T01:52:35.534Z,20.58
2018-07-03T01:53:35.480Z,20.72
2018-07-03T01:54:35.442Z,20.66
2018-07-03T01:55:35.389Z,20.69
2018-07-03T01:56:35.607Z,20.56
2018-07-03T01:57:35.302Z,20.60
2018-07-03T01:58:35.274Z,20.59
2018-07-03T01:59:35.205Z,20.56
2018-07-03T02:00:35.174Z,20.55
2018-07-03T02:01:35.127Z,20.67
2018-07-03T02:02:35.341Z,20.66
2018-07-03T02:03:35.042Z,20.67
2018-07-03T02:04:34.999Z,20.65
2018-07-03T02:05:34.964Z,20.63
2018-07-03T02:06:34.884Z,20.59
2018-07-03T02:07:34.841Z,20.56
2018-07-03T02:08:35.041Z,20.56
2018-07-03T02:09:34.775Z,20.51
2018-07-03T02:10:34.718Z,20.41
2018-07-03T02:11:34.659Z,20.48
2018-07-03T02:12:34.620Z,20.43
2018-07-03T02:13:34.584Z,20.41
2018-07-03T02:14:34.795Z,20.56
2018-07-03T02:15:34.477Z,20.52
2018-07-03T02:16:34.446Z,20.47
2018-07-03T02:17:34.406Z,20.50
2018-07-03T02:18:34.340Z,20.50
2018-07-03T02:19:34.295Z,20.47
2018-07-03T02:20:34.507Z,20.52
2018-07-03T02:21:34.212Z,20.43
2018-07-03T02:22:34.166Z,20.51
2018-07-03T02:23:34.114Z,20.52
2018-07-03T02:24:34.089Z,20.52
2018-07-03T02:25:34.043Z,20.56
2018-07-03T02:26:34.253Z,20.32
2018-07-03T02:27:33.930Z,20.41
2018-07-03T02:28:33.876Z,20.47
2018-07-03T02:29:33.871Z,20.44
2018-07-03T02:30:33.789Z,20.44
2018-07-03T02:31:33.761Z,20.43
2018-07-03T02:32:33.966Z,20.47
2018-07-03T02:33:33.668Z,20.36
2018-07-03T02:34:33.604Z,20.43
2018-07-03T02:35:33.571Z,20.48
2018-07-03T02:36:33.546Z,20.43
2018-07-03T02:37:33.481Z,20.47
2018-07-03T02:38:33.693Z,20.31
2018-07-03T02:39:33.383Z,20.47
2018-07-03T02:40:33.358Z,20.40
2018-07-03T02:41:33.319Z,20.37
2018-07-03T02:42:33.285Z,20.25
2018-07-03T02:43:33.212Z,20.18
2018-07-03T02:44:33.413Z,20.10
2018-07-03T02:45:33.136Z,20.10
2018-07-03T02:46:33.093Z,20.26
2018-07-03T02:47:33.045Z,20.31
2018-07-03T02:48:32.989Z,20.25
2018-07-03T02:49:32.921Z,20.13
2018-07-03T02:50:33.140Z,20.07
2018-07-03T02:51:32.860Z,20.13
2018-07-03T02:52:32.817Z,20.21
2018-07-03T02:53:32.742Z,20.21
2018-07-03T02:54:32.726Z,20.28
2018-07-03T02:55:32.654Z,20.36
2018-07-03T02:56:32.880Z,20.36
2018-07-03T02:57:32.589Z,20.19
2018-07-03T02:58:32.543Z,20.22
2018-07-03T02:59:32.479Z,20.13
2018-07-03T03:00:32.432Z,20.13
2018-07-03T03:01:32.406Z,20.19
2018-07-03T03:02:32.595Z,20.13
2018-07-03T03:03:32.305Z,20.19
2018-07-03T03:04:32.244Z,20.13
2018-07-03T03:05:32.205Z,20.22
2018-07-03T03:06:32.181Z,20.22
2018-07-03T03:07:32.133Z,20.26
2018-07-03T03:08:32.321Z,20.18
2018-07-03T03:09:32.040Z,20.18
2018-07-03T03:10:31.965Z,20.31
2018-07-03T03:11:31.926Z,20.29
2018-07-03T03:12:31.892Z,20.21
2018-07-03T03:13:31.840Z,20.25
2018-07-03T03:14:32.040Z,20.24
2018-07-03T03:15:31.764Z,20.31
2018-07-03T03:16:31.695Z,20.24
2018-07-03T03:17:31.664Z,20.21
2018-07-03T03:18:31.609Z,20.24
2018-07-03T03:19:31.570Z,20.25
2018-07-03T03:20:31.760Z,20.21
2018-07-03T03:21:31.489Z,20.19
2018-07-03T03:22:31.464Z,20.10
2018-07-03T03:23:31.387Z,20.06
2018-07-03T03:24:31.325Z,20.07
2018-07-03T03:25:31.299Z,20.06
2018-07-03T03:26:31.515Z,19.94
2018-07-03T03:27:31.213Z,19.85
2018-07-03T03:28:31.169Z,19.81
2018-07-03T03:29:31.124Z,19.85
2018-07-03T03:30:31.090Z,19.79
2018-07-03T03:31:31.047Z,19.88
2018-07-03T03:32:31.226Z,19.82
2018-07-03T03:33:30.929Z,19.86
2018-07-03T03:34:30.883Z,19.84
2018-07-03T03:35:30.828Z,19.89
2018-07-03T03:36:30.792Z,19.96
2018-07-03T03:37:30.727Z,20.03
2018-07-03T03:38:30.968Z,19.99
2018-07-03T03:39:30.651Z,19.94
2018-07-03T03:40:30.608Z,19.96
2018-07-03T03:41:30.551Z,19.91
2018-07-03T03:42:30.530Z,19.95
2018-07-03T03:43:30.467Z,19.94
2018-07-03T03:44:30.673Z,19.96
2018-07-03T03:45:30.370Z,19.95
2018-07-03T03:46:30.339Z,19.99
2018-07-03T03:47:30.279Z,19.89
2018-07-03T03:48:30.236Z,19.82
2018-07-03T03:49:30.194Z,19.89
2018-07-03T03:50:30.391Z,20.03
2018-07-03T03:51:30.117Z,19.85
2018-07-03T03:52:30.046Z,19.88
2018-07-03T03:53:30.016Z,19.86
2018-07-03T03:54:29.973Z,19.77
2018-07-03T03:55:29.912Z,19.71
2018-07-03T03:56:30.149Z,19.79
2018-07-03T03:57:29.827Z,19.82
2018-07-03T03:58:29.770Z,19.82
2018-07-03T03:59:29.744Z,19.77
2018-07-03T04:00:29.684Z,19.85
2018-07-03T04:01:29.658Z,19.71
2018-07-03T04:02:29.852Z,19.77
2018-07-03T04:03:29.575Z,19.76
2018-07-03T04:04:29.507Z,19.82
2018-07-03T04:05:29.470Z,19.92
2018-07-03T04:06:29.446Z,19.94
2018-07-03T04:07:29.359Z,19.85
2018-07-03T04:08:29.567Z,19.79
2018-07-03T04:09:29.297Z,19.81
2018-07-03T04:10:29.230Z,19.81
2018-07-03T04:11:29.194Z,19.73
2018-07-03T04:12:29.135Z,19.79
2018-07-03T04:13:29.089Z,19.91
2018-07-03T04:14:29.315Z,19.86
2018-07-03T04:15:29.034Z,19.82
2018-07-03T04:16:28.965Z,19.92
2018-07-03T04:17:28.902Z,19.85
2018-07-03T04:18:28.876Z,19.85
2018-07-03T04:19:28.835Z,19.76
2018-07-03T04:20:29.017Z,19.82
2018-07-03T04:21:28.718Z,19.84
2018-07-03T04:22:28.681Z,19.71
2018-07-03T04:23:28.627Z,19.82
2018-07-03T04:24:28.612Z,19.69
2018-07-03T04:25:28.563Z,19.64
2018-07-03T04:26:28.769Z,19.88
2018-07-03T04:27:28.464Z,19.66
2018-07-03T04:28:28.422Z,19.73
2018-07-03T04:29:28.394Z,19.64
2018-07-03T04:30:28.336Z,19.81
2018-07-03T04:31:28.264Z,19.82
2018-07-03T04:32:28.479Z,19.82
2018-07-03T04:33:28.172Z,19.82
2018-07-03T04:34:28.128Z,19.85
2018-07-03T04:35:28.070Z,19.67
2018-07-03T04:36:28.064Z,19.71
2018-07-03T04:37:28.005Z,19.71
2018-07-03T04:38:28.195Z,19.70
2018-07-03T04:39:27.922Z,19.64
2018-07-03T04:40:27.889Z,19.59
2018-07-03T04:41:27.874Z,19.55
2018-07-03T04:42:27.801Z,19.58
2018-07-03T04:43:27.750Z,19.63
2018-07-03T04:44:27.939Z,19.62
2018-07-03T04:45:27.631Z,19.63
2018-07-03T04:46:27.580Z,19.67
2018-07-03T04:47:27.530Z,19.76
2018-07-03T04:48:27.493Z,19.73
2018-07-03T04:49:27.477Z,19.70
2018-07-03T04:50:27.667Z,19.66
2018-07-03T04:51:27.347Z,19.66
2018-07-03T04:52:27.334Z,19.59
2018-07-03T04:53:27.349Z,19.59
2018-07-03T04:54:27.223Z,19.64
2018-07-03T04:55:27.160Z,19.51
2018-07-03T04:56:27.367Z,19.62
2018-07-03T04:57:27.073Z,19.59
2018-07-03T04:58:27.034Z,19.59
2018-07-03T04:59:27.006Z,19.59
2018-07-03T05:00:26.943Z,19.59
2018-07-03T05:01:26.899Z,19.64
2018-07-03T05:02:27.122Z,19.52
2018-07-03T05:03:26.809Z,19.62
2018-07-03T05:04:26.751Z,19.54
2018-07-03T05:05:26.716Z,19.54
2018-07-03T05:06:26.665Z,19.40
2018-07-03T05:07:26.627Z,19.55
2018-07-03T05:08:26.833Z,19.52
2018-07-03T05:09:26.542Z,19.48
2018-07-03T05:10:26.488Z,19.40
2018-07-03T05:11:26.445Z,19.52
2018-07-03T05:12:26.390Z,19.45
2018-07-03T05:13:26.340Z,19.52
2018-07-03T05:14:26.550Z,19.51
2018-07-03T05:15:26.266Z,19.54
2018-07-03T05:16:26.191Z,19.62
2018-07-03T05:17:26.237Z,19.58
2018-07-03T05:18:26.134Z,19.52
2018-07-03T05:19:26.066Z,19.63
2018-07-03T05:20:26.283Z,19.59
2018-07-03T05:21:25.985Z,19.54
2018-07-03T05:22:25.925Z,19.49
2018-07-03T05:23:25.892Z,19.39
2018-07-03T05:24:25.845Z,19.40
2018-07-03T05:25:25.798Z,19.45
2018-07-03T05:26:26.014Z,19.41
2018-07-03T05:27:25.693Z,19.41
2018-07-03T05:28:25.664Z,19.41
2018-07-03T05:29:25.613Z,19.40
2018-07-03T05:30:25.567Z,19.48
2018-07-03T05:31:25.534Z,19.47
2018-07-03T05:32:25.717Z,19.54
2018-07-03T05:33:25.427Z,19.52
2018-07-03T05:34:25.385Z,19.48
2018-07-03T05:35:25.356Z,19.51
2018-07-03T05:36:25.292Z,19.47
2018-07-03T05:37:25.496Z,19.56
2018-07-03T05:38:25.198Z,19.52
2018-07-03T05:39:25.162Z,19.54
2018-07-03T05:40:25.221Z,19.54
2018-07-03T05:41:25.271Z,19.48
2018-07-03T05:42:25.166Z,19.52
2018-07-03T05:43:25.220Z,19.55
2018-07-03T05:44:24.937Z,19.48
2018-07-03T05:45:24.881Z,19.40
2018-07-03T05:46:24.819Z,19.51
2018-07-03T05:47:24.780Z,19.54
2018-07-03T05:48:24.739Z,19.54
2018-07-03T05:49:24.948Z,19.48
2018-07-03T05:50:24.657Z,19.54
2018-07-03T05:51:24.604Z,19.49
2018-07-03T05:52:24.549Z,19.47
2018-07-03T05:53:24.521Z,19.39
2018-07-03T05:54:24.471Z,19.51
2018-07-03T05:55:24.660Z,19.41
2018-07-03T05:56:24.434Z,19.54
2018-07-03T05:57:24.314Z,19.41
2018-07-03T05:58:24.283Z,19.44
2018-07-03T05:59:24.234Z,19.58
2018-07-03T06:00:24.452Z,19.52
2018-07-03T06:01:24.142Z,19.41
2018-07-03T06:02:24.104Z,19.45
2018-07-03T06:03:24.059Z,19.49
2018-07-03T06:04:23.997Z,19.44
2018-07-03T06:05:23.954Z,19.40
2018-07-03T06:06:24.178Z,19.33
2018-07-03T06:07:23.892Z,19.33
2018-07-03T06:08:23.808Z,19.31
2018-07-03T06:09:23.769Z,19.27
2018-07-03T06:10:23.723Z,19.30
2018-07-03T06:11:23.671Z,19.40
2018-07-03T06:12:23.880Z,19.44
2018-07-03T06:13:23.581Z,19.45
2018-07-03T06:14:23.553Z,19.45
2018-07-03T06:15:23.518Z,19.45
2018-07-03T06:16:23.478Z,19.44
2018-07-03T06:17:23.421Z,19.45
2018-07-03T06:18:23.607Z,19.44
2018-07-03T06:19:23.318Z,19.39
2018-07-03T06:20:23.258Z,19.44
2018-07-03T06:21:23.236Z,19.27
2018-07-03T06:22:23.165Z,19.19
2018-07-03T06:23:23.125Z,19.24
2018-07-03T06:24:23.338Z,19.27
2018-07-03T06:25:23.192Z,19.22
2018-07-03T06:26:23.017Z,19.29
2018-07-03T06:27:22.954Z,19.39
2018-07-03T06:28:22.901Z,19.33
2018-07-03T06:29:22.868Z,19.34
2018-07-03T06:30:23.065Z,19.34
2018-07-03T06:31:22.757Z,19.36
2018-07-03T06:32:22.710Z,19.27
2018-07-03T06:33:22.667Z,19.34
2018-07-03T06:34:22.619Z,19.24
2018-07-03T06:35:22.578Z,19.19
2018-07-03T06:36:22.803Z,19.18
2018-07-03T06:37:22.557Z,19.16
2018-07-03T06:38:22.430Z,19.11
2018-07-03T06:39:22.402Z,19.02
2018-07-03T06:40:22.338Z,19.04
2018-07-03T06:41:22.304Z,19.07
2018-07-03T06:42:22.512Z,19.08
2018-07-03T06:43:22.215Z,19.09
2018-07-03T06:44:22.168Z,19.04
2018-07-03T06:45:22.107Z,19.07
2018-07-03T06:46:22.060Z,19.09
2018-07-03T06:47:22.109Z,19.16
2018-07-03T06:48:22.089Z,18.99
2018-07-03T06:49:21.966Z,19.00
2018-07-03T06:50:21.886Z,19.04
2018-07-03T06:51:21.843Z,18.99
2018-07-03T06:52:21.802Z,18.90
2018-07-03T06:53:21.770Z,18.89
2018-07-03T06:54:21.867Z,18.93
2018-07-03T06:55:21.651Z,18.99
2018-07-03T06:56:21.612Z,18.95
2018-07-03T06:57:21.568Z,19.08
2018-07-03T06:58:21.519Z,19.04
2018-07-03T06:59:21.468Z,19.08
2018-07-03T07:00:21.446Z,19.04
2018-07-03T07:01:21.381Z,19.07
2018-07-03T07:02:21.328Z,19.00
2018-07-03T07:03:21.309Z,19.02
2018-07-03T07:04:21.235Z,18.98
2018-07-03T07:05:21.203Z,18.96
2018-07-03T07:06:21.157Z,18.95
2018-07-03T07:07:21.111Z,19.07
2018-07-03T07:08:21.055Z,18.90
2018-07-03T07:09:21.098Z,18.83
2018-07-03T07:10:20.967Z,18.88
2018-07-03T07:11:20.913Z,18.68
2018-07-03T07:12:20.875Z,18.70
2018-07-03T07:13:20.848Z,18.89
2018-07-03T07:14:20.781Z,18.90
2018-07-03T07:15:20.741Z,18.73
2018-07-03T07:16:20.697Z,18.75
2018-07-03T07:17:20.657Z,18.60
2018-07-03T07:18:20.590Z,18.71
2018-07-03T07:19:20.559Z,18.86
2018-07-03T07:20:20.510Z,18.73
2018-07-03T07:21:20.474Z,18.74
2018-07-03T07:22:20.442Z,18.86
2018-07-03T07:23:20.396Z,18.77
2018-07-03T07:24:20.326Z,18.88
2018-07-03T07:25:20.262Z,18.74
2018-07-03T07:26:20.215Z,18.80
2018-07-03T07:27:20.177Z,18.71
2018-07-03T07:28:20.128Z,18.75
2018-07-03T07:29:20.101Z,18.66
2018-07-03T07:30:20.035Z,18.73
2018-07-03T07:31:20.008Z,18.75
2018-07-03T07:32:19.969Z,18.71
2018-07-03T07:33:19.893Z,18.75
2018-07-03T07:34:19.865Z,18.68
2018-07-03T07:35:19.820Z,18.63
2018-07-03T07:36:19.753Z,18.60
2018-07-03T07:37:19.708Z,18.60
2018-07-03T07:38:19.680Z,18.60
2018-07-03T07:39:19.640Z,18.60
2018-07-03T07:40:19.619Z,18.59
2018-07-03T07:41:19.533Z,18.59
2018-07-03T07:42:19.481Z,18.70
2018-07-03T07:43:19.446Z,18.65
2018-07-03T07:44:19.420Z,18.73
2018-07-03T07:45:19.363Z,18.80
2018-07-03T07:46:19.321Z,18.73
2018-07-03T07:47:19.263Z,18.59
2018-07-03T07:48:19.199Z,18.60
2018-07-03T07:49:19.168Z,18.58
2018-07-03T07:50:19.166Z,18.58
2018-07-03T07:51:19.065Z,18.45
2018-07-03T07:52:19.023Z,18.43
2018-07-03T07:53:18.972Z,18.50
2018-07-03T07:54:18.951Z,18.43
2018-07-03T07:55:18.877Z,18.52
2018-07-03T07:56:18.845Z,18.56
2018-07-03T07:57:18.781Z,18.50
2018-07-03T07:58:18.765Z,18.53
2018-07-03T07:59:18.692Z,18.47
2018-07-03T08:00:18.667Z,18.43
2018-07-03T08:01:18.601Z,18.50
2018-07-03T08:02:18.551Z,18.41
2018-07-03T08:03:18.519Z,18.41
2018-07-03T08:04:18.470Z,18.37
2018-07-03T08:05:18.426Z,18.44
2018-07-03T08:06:18.378Z,18.40
2018-07-03T08:07:18.335Z,18.40
2018-07-03T08:08:18.274Z,18.44
2018-07-03T08:09:18.226Z,18.40
2018-07-03T08:10:18.185Z,18.49
2018-07-03T08:11:18.152Z,18.58
2018-07-03T08:12:18.105Z,18.52
2018-07-03T08:13:18.092Z,18.59
2018-07-03T08:14:18.014Z,18.68
2018-07-03T08:15:17.959Z,18.66
2018-07-03T08:16:17.915Z,18.68
2018-07-03T08:17:17.863Z,18.63
2018-07-03T08:18:17.818Z,18.71
2018-07-03T08:19:17.777Z,18.59
2018-07-03T08:20:17.731Z,18.59
2018-07-03T08:21:17.674Z,18.52
2018-07-03T08:22:17.620Z,18.53
2018-07-03T08:23:17.575Z,18.58
2018-07-03T08:24:17.539Z,18.38
2018-07-03T08:25:17.504Z,18.49
2018-07-03T08:26:17.452Z,18.43
2018-07-03T08:27:17.420Z,18.43
2018-07-03T08:28:17.371Z,18.53
2018-07-03T08:29:17.305Z,18.37
2018-07-03T08:30:17.255Z,18.47
2018-07-03T08:31:17.236Z,18.52
2018-07-03T08:32:17.190Z,18.55
2018-07-03T08:33:17.135Z,18.49
2018-07-03T08:34:17.086Z,18.47
2018-07-03T08:35:17.030Z,18.34
2018-07-03T08:36:16.991Z,18.28
2018-07-03T08:37:16.933Z,18.29
2018-07-03T08:38:16.907Z,18.38
2018-07-03T08:39:16.835Z,18.34
2018-07-03T08:40:16.801Z,18.35
2018-07-03T08:41:16.781Z,18.40
2018-07-03T08:42:16.698Z,18.29
2018-07-03T08:43:16.666Z,18.29
2018-07-03T08:44:16.637Z,18.16
2018-07-03T08:45:16.577Z,18.33
2018-07-03T08:46:16.542Z,18.40
2018-07-03T08:47:16.480Z,18.47
2018-07-03T08:48:16.419Z,18.59
2018-07-03T08:49:16.386Z,18.47
2018-07-03T08:50:16.357Z,18.45
2018-07-03T08:51:16.285Z,18.40
2018-07-03T08:52:16.251Z,18.43
2018-07-03T08:53:16.189Z,18.41
2018-07-03T08:54:16.166Z,18.45
2018-07-03T08:55:16.093Z,18.45
2018-07-03T08:56:16.051Z,18.45
2018-07-03T08:57:16.016Z,18.45
2018-07-03T08:58:16.027Z,18.33
2018-07-03T08:59:15.936Z,18.41
2018-07-03T09:00:15.876Z,18.53
2018-07-03T09:01:15.831Z,18.50
2018-07-03T09:02:15.766Z,18.53
2018-07-03T09:03:15.752Z,18.44
2018-07-03T09:04:15.694Z,18.40
2018-07-03T09:05:15.637Z,18.31
2018-07-03T09:06:15.591Z,18.25
2018-07-03T09:07:15.559Z,18.34
2018-07-03T09:08:15.505Z,18.19
2018-07-03T09:09:15.460Z,18.13
2018-07-03T09:10:15.407Z,18.25
2018-07-03T09:11:15.363Z,18.23
2018-07-03T09:12:15.313Z,18.15
2018-07-03T09:13:15.808Z,18.20
2018-07-03T09:14:15.216Z,18.26
2018-07-03T09:15:15.180Z,18.19
2018-07-03T09:16:15.152Z,18.16
2018-07-03T09:17:15.101Z,18.15
2018-07-03T09:18:15.065Z,18.13
2018-07-03T09:19:15.010Z,18.18
2018-07-03T09:20:14.936Z,18.25
2018-07-03T09:21:14.907Z,18.16
2018-07-03T09:22:14.860Z,18.11
2018-07-03T09:23:14.801Z,18.16
2018-07-03T09:24:14.774Z,18.20
2018-07-03T09:25:14.714Z,18.08
2018-07-03T09:26:14.675Z,18.11
2018-07-03T09:27:14.615Z,18.16
2018-07-03T09:28:14.591Z,18.05
2018-07-03T09:29:14.550Z,18.07
2018-07-03T09:30:14.503Z,18.07
2018-07-03T09:31:14.429Z,18.01
2018-07-03T09:32:14.385Z,17.98
2018-07-03T09:33:14.350Z,18.11
2018-07-03T09:34:14.290Z,18.13
2018-07-03T09:35:14.240Z,18.07
2018-07-03T09:36:14.218Z,18.15
2018-07-03T09:37:14.160Z,18.05
2018-07-03T09:38:14.121Z,18.13
2018-07-03T09:39:14.057Z,18.08
2018-07-03T09:40:14.023Z,18.15
2018-07-03T09:41:13.978Z,18.13
2018-07-03T09:42:13.943Z,18.26
2018-07-03T09:43:13.883Z,18.34
2018-07-03T09:44:13.827Z,18.33
2018-07-03T09:45:13.796Z,18.40
2018-07-03T09:46:13.734Z,18.37
2018-07-03T09:47:13.716Z,18.40
2018-07-03T09:48:13.641Z,18.41
2018-07-03T09:49:13.616Z,18.44
2018-07-03T09:50:13.550Z,18.50
2018-07-03T09:51:13.526Z,18.55
2018-07-03T09:52:13.471Z,18.53
2018-07-03T09:53:13.410Z,18.55
2018-07-03T09:54:13.391Z,18.52
2018-07-03T09:55:13.336Z,18.44
2018-07-03T09:56:13.283Z,18.33
2018-07-03T09:57:13.226Z,18.31
2018-07-03T09:58:13.206Z,18.23
2018-07-03T09:59:13.140Z,18.22
2018-07-03T10:00:13.114Z,18.33
2018-07-03T10:01:13.050Z,18.31
2018-07-03T10:02:13.007Z,18.34
2018-07-03T10:03:12.973Z,18.38
2018-07-03T10:04:12.916Z,18.31
2018-07-03T10:05:12.850Z,18.34
2018-07-03T10:06:12.830Z,18.40
2018-07-03T10:07:12.769Z,18.28
2018-07-03T10:08:12.719Z,18.35
2018-07-03T10:09:12.677Z,18.35
2018-07-03T10:10:12.649Z,18.49
2018-07-03T10:11:12.572Z,18.31
2018-07-03T10:12:12.551Z,18.41
2018-07-03T10:13:12.500Z,18.40
2018-07-03T10:14:12.440Z,18.41
2018-07-03T10:15:12.418Z,18.43
2018-07-03T10:16:12.361Z,18.41
2018-07-03T10:17:12.345Z,18.41
2018-07-03T10:18:12.267Z,18.47
2018-07-03T10:19:12.223Z,18.37
2018-07-03T10:20:12.187Z,18.31
2018-07-03T10:21:12.143Z,18.37
2018-07-03T10:22:12.073Z,18.50
2018-07-03T10:23:12.023Z,18.56
2018-07-03T10:24:12.004Z,18.59
2018-07-03T10:25:11.933Z,18.56
2018-07-03T10:26:11.906Z,18.41
2018-07-03T10:27:11.838Z,18.44
2018-07-03T10:28:11.804Z,18.43
2018-07-03T10:29:11.749Z,18.55
2018-07-03T10:30:11.727Z,18.43
2018-07-03T10:31:11.667Z,18.53
2018-07-03T10:32:11.624Z,18.43
2018-07-03T10:33:11.574Z,18.52
2018-07-03T10:34:11.518Z,18.49
2018-07-03T10:35:11.473Z,18.65
2018-07-03T10:36:11.458Z,18.74
2018-07-03T10:37:11.375Z,18.90
2018-07-03T10:38:11.344Z,18.86
2018-07-03T10:39:11.292Z,18.99
2018-07-03T10:40:11.255Z,19.19
2018-07-03T10:41:11.296Z,19.31
2018-07-03T10:42:11.190Z,19.45
2018-07-03T10:43:11.108Z,19.52
2018-07-03T10:44:11.103Z,19.76
2018-07-03T10:45:11.026Z,19.99
2018-07-03T10:46:10.994Z,20.34
2018-07-03T10:47:10.957Z,20.39
2018-07-03T10:48:10.926Z,20.56
2018-07-03T10:49:10.866Z,20.74
2018-07-03T10:50:10.822Z,20.88
2018-07-03T10:51:10.794Z,21.11
2018-07-03T10:52:10.753Z,21.21
2018-07-03T10:53:10.699Z,21.46
2018-07-03T10:54:10.748Z,21.45
2018-07-03T10:55:10.641Z,21.55
2018-07-03T10:56:10.587Z,21.70
2018-07-03T10:57:10.559Z,21.62
2018-07-03T10:58:10.524Z,21.79
2018-07-03T10:59:10.484Z,21.88
2018-07-03T11:00:10.417Z,22.00
2018-07-03T11:01:10.414Z,22.10
2018-07-03T11:02:10.373Z,22.20
2018-07-03T11:03:10.321Z,22.25
2018-07-03T11:04:10.303Z,22.62
2018-07-03T11:05:10.271Z,22.85
2018-07-03T11:06:10.216Z,22.98
2018-07-03T11:07:10.163Z,23.00
2018-07-03T11:08:10.131Z,23.12
2018-07-03T11:09:10.126Z,23.31
2018-07-03T11:10:10.067Z,23.34
2018-07-03T11:11:10.027Z,23.40
2018-07-03T11:12:09.983Z,23.68
2018-07-03T11:13:09.951Z,23.87
2018-07-03T11:14:09.996Z,23.74
2018-07-03T11:15:09.894Z,24.05
2018-07-03T11:16:09.868Z,24.06
2018-07-03T11:17:09.815Z,24.14
2018-07-03T11:18:09.789Z,24.36
2018-07-03T11:19:09.753Z,24.18
2018-07-03T11:20:09.838Z,24.51
2018-07-03T11:21:09.709Z,24.42
2018-07-03T11:22:09.632Z,24.43
2018-07-03T11:23:09.636Z,24.42
2018-07-03T11:24:09.571Z,24.18
2018-07-03T11:25:09.551Z,24.13
2018-07-03T11:26:09.516Z,23.92
2018-07-03T11:27:09.467Z,23.63
2018-07-03T11:28:09.413Z,23.58
2018-07-03T11:29:09.386Z,23.43
2018-07-03T11:30:09.353Z,23.47
2018-07-03T11:31:09.311Z,23.47
2018-07-03T11:32:09.254Z,23.24
2018-07-03T11:33:09.220Z,23.08
2018-07-03T11:34:09.186Z,22.98
2018-07-03T11:35:09.137Z,22.88
2018-07-03T11:36:09.097Z,22.65
2018-07-03T11:37:09.096Z,22.55
2018-07-03T11:38:09.011Z,22.54
2018-07-03T11:39:09.011Z,22.33
2018-07-03T11:40:08.944Z,22.41
2018-07-03T11:41:08.910Z,22.44
2018-07-03T11:42:08.849Z,22.36
2018-07-03T11:43:08.834Z,22.47
2018-07-03T11:44:08.764Z,22.38
2018-07-03T11:45:08.746Z,22.29
2018-07-03T11:46:08.684Z,22.32
2018-07-03T11:47:08.656Z,22.39
2018-07-03T11:48:08.607Z,22.35
2018-07-03T11:49:08.567Z,22.33
2018-07-03T11:50:08.540Z,22.36
2018-07-03T11:51:08.491Z,22.43
2018-07-03T11:52:08.444Z,22.36
2018-07-03T11:53:08.380Z,22.32
2018-07-03T11:54:08.338Z,22.35
2018-07-03T11:55:08.296Z,22.38
2018-07-03T11:56:08.289Z,22.41
2018-07-03T11:57:08.207Z,22.33
2018-07-03T11:58:08.164Z,22.43
2018-07-03T11:59:08.120Z,22.45
2018-07-03T12:00:08.080Z,22.41
2018-07-03T12:01:08.062Z,22.50
2018-07-03T12:02:07.996Z,22.38
2018-07-03T12:03:07.974Z,22.48
2018-07-03T12:04:07.933Z,22.54
2018-07-03T12:05:07.872Z,22.53
2018-07-03T12:06:07.852Z,22.59
2018-07-03T12:07:07.807Z,22.51
2018-07-03T12:08:07.738Z,22.45
2018-07-03T12:09:07.691Z,22.39
2018-07-03T12:10:07.648Z,22.38
2018-07-03T12:11:07.618Z,22.30
2018-07-03T12:12:07.589Z,22.39
2018-07-03T12:13:07.515Z,22.43
2018-07-03T12:14:07.479Z,22.55
2018-07-03T12:15:07.457Z,22.45
2018-07-03T12:16:07.391Z,22.55
2018-07-03T12:17:07.340Z,22.54
2018-07-03T12:18:07.311Z,22.53
2018-07-03T12:19:07.249Z,22.60
2018-07-03T12:20:07.206Z,22.66
2018-07-03T12:21:07.186Z,22.68
2018-07-03T12:22:07.119Z,22.66
2018-07-03T12:23:07.074Z,22.68
2018-07-03T12:24:07.062Z,22.75
2018-07-03T12:25:07.004Z,22.75
2018-07-03T12:26:06.948Z,22.85
2018-07-03T12:27:06.897Z,22.75
2018-07-03T12:28:06.862Z,22.76
2018-07-03T12:29:06.904Z,22.85
2018-07-03T12:30:06.780Z,22.88
2018-07-03T12:31:06.747Z,22.85
2018-07-03T12:32:06.684Z,22.99
2018-07-03T12:33:06.641Z,22.87
2018-07-03T12:34:06.638Z,22.88
2018-07-03T12:35:06.606Z,23.05
2018-07-03T12:36:06.524Z,23.08
2018-07-03T12:37:06.500Z,23.00
2018-07-03T12:38:06.432Z,23.09
2018-07-03T12:39:06.394Z,23.08
2018-07-03T12:40:06.344Z,23.10
2018-07-03T12:41:06.306Z,23.10
2018-07-03T12:42:06.284Z,23.08
2018-07-03T12:43:06.231Z,23.08
2018-07-03T12:44:06.218Z,23.13
2018-07-03T12:45:06.122Z,23.21
2018-07-03T12:46:06.081Z,23.28
2018-07-03T12:47:06.045Z,23.28
2018-07-03T12:48:06.008Z,23.34
2018-07-03T12:49:05.960Z,23.23
2018-07-03T12:50:05.936Z,23.37
2018-07-03T12:51:05.864Z,23.40
2018-07-03T12:52:05.819Z,23.44